createdAt,value
2022-09-03T00:01:25.469Z,48.47
2022-09-03T00:04:03.701Z,47.33
2022-09-03T00:06:39.987Z,48.32
2022-09-03T00:09:21.468Z,47.80
2022-09-03T00:12:00.775Z,46.86
2022-09-03T00:14:51.587Z,47.03
2022-09-03T00:17:22.952Z,48.01
2022-09-03T00:20:00.925Z,47.21
2022-09-03T00:22:33.791Z,47.52
2022-09-03T00:25:05.456Z,48.73
2022-09-03T00:27:36.446Z,48.22
2022-09-03T00:30:10.129Z,47.97
2022-09-03T00:32:47.340Z,48.50
2022-09-03T00:35:40.215Z,49.29
2022-09-03T00:38:06.966Z,48.80
2022-09-03T00:40:54.485Z,48.40
2022-09-03T00:43:53.071Z,47.47
2022-09-03T00:46:30.869Z,47.11
2022-09-03T00:49:22.235Z,46.64
2022-09-03T00:52:11.422Z,47.41
2022-09-03T00:54:46.856Z,47.57
2022-09-03T00:57:47.713Z,48.03
2022-09-03T01:00:21.923Z,48.67
2022-09-03T01:03:06.997Z,47.99
2022-09-03T01:05:52.314Z,47.79
2022-09-03T01:08:36.990Z,46.96
2022-09-03T01:11:43.203Z,47.64
2022-09-03T01:14:24.891Z,47.52
2022-09-03T01:17:05.414Z,47.96
2022-09-03T01:20:03.327Z,48.40
2022-09-03T01:22:39.123Z,48.02
2022-09-03T01:25:32.178Z,48.78
2022-09-03T01:28:48.939Z,49.53
2022-09-03T01:31:37.310Z,47.85
2022-09-03T01:34:16.214Z,47.84
2022-09-03T01:36:45.711Z,47.65
2022-09-03T01:39:25.007Z,48.34
2022-09-03T01:42:20.251Z,48.84
2022-09-03T01:45:32.377Z,48.55
2022-09-03T01:48:30.998Z,48.94
2022-09-03T01:51:11.528Z,47.61
2022-09-03T01:54:15.647Z,47.49
2022-09-03T01:57:35.746Z,48.50
2022-09-03T02:00:14.537Z,49.58
2022-09-03T02:02:43.527Z,49.23
2022-09-03T02:05:24.794Z,48.57
2022-09-03T02:08:01.125Z,48.80
2022-09-03T02:10:31.651Z,49.68
2022-09-03T02:13:21.499Z,48.73
2022-09-03T02:15:52.156Z,49.63
2022-09-03T02:18:23.160Z,49.39
2022-09-03T02:20:53.257Z,49.76
2022-09-03T02:23:25.526Z,49.78
2022-09-03T02:25:58.501Z,49.86
2022-09-03T02:28:27.287Z,50.56
2022-09-03T02:30:54.404Z,50.48
2022-09-03T02:33:21.158Z,51.61
2022-09-03T02:35:47.629Z,50.44
2022-09-03T02:38:18.609Z,50.26
2022-09-03T02:40:45.773Z,51.13
2022-09-03T02:43:18.771Z,51.39
2022-09-03T02:45:50.505Z,51.15
2022-09-03T02:48:22.721Z,51.16
2022-09-03T02:50:49.435Z,52.32
2022-09-03T02:53:16.734Z,52.68
2022-09-03T02:55:44.404Z,51.65
2022-09-03T02:58:11.350Z,52.51
2022-09-03T03:00:38.264Z,52.34
2022-09-03T03:03:06.356Z,52.31
2022-09-03T03:05:48.542Z,52.25
2022-09-03T03:08:16.995Z,52.60
2022-09-03T03:10:46.356Z,52.07
2022-09-03T03:13:13.520Z,52.54
2022-09-03T03:15:40.220Z,53.34
2022-09-03T03:18:07.633Z,53.41
2022-09-03T03:20:34.671Z,53.51
2022-09-03T03:23:05.628Z,52.94
2022-09-03T03:25:33.366Z,53.73
2022-09-03T03:28:00.365Z,54.09
2022-09-03T03:30:28.069Z,53.63
2022-09-03T03:32:55.107Z,53.76
2022-09-03T03:35:22.084Z,55.01
2022-09-03T03:37:48.620Z,54.45
2022-09-03T03:40:15.403Z,54.47
2022-09-03T03:42:42.568Z,53.80
2022-09-03T03:45:12.954Z,54.11
2022-09-03T03:47:39.389Z,54.20
2022-09-03T03:50:06.452Z,54.43
2022-09-03T03:52:33.008Z,54.63
2022-09-03T03:54:59.509Z,53.59
2022-09-03T03:57:26.052Z,54.78
2022-09-03T03:59:52.501Z,53.70
2022-09-03T04:02:19.037Z,54.03
2022-09-03T04:04:45.605Z,54.45
2022-09-03T04:07:12.056Z,55.00
2022-09-03T04:09:38.754Z,54.67
2022-09-03T04:12:08.564Z,55.46
2022-09-03T04:14:35.286Z,54.37
2022-09-03T04:17:03.090Z,54.72
2022-09-03T04:19:30.237Z,55.03
2022-09-03T04:21:57.104Z,55.40
2022-09-03T04:24:23.981Z,56.51
2022-09-03T04:26:50.657Z,55.79
2022-09-03T04:29:18.318Z,55.34
2022-09-03T04:32:04.889Z,54.46
2022-09-03T04:34:31.412Z,55.98
2022-09-03T04:37:00.775Z,55.93
2022-09-03T04:39:27.330Z,56.24
2022-09-03T04:41:53.880Z,56.61
2022-09-03T04:44:20.413Z,55.89
2022-09-03T04:46:48.165Z,56.85
2022-09-03T04:49:15.132Z,56.54
2022-09-03T04:51:41.913Z,56.81
2022-09-03T04:54:09.943Z,56.66
2022-09-03T04:56:38.566Z,56.92
2022-09-03T04:59:08.735Z,56.63
2022-09-03T05:01:38.032Z,56.84
2022-09-03T05:04:05.832Z,57.03
2022-09-03T05:06:33.311Z,57.07
2022-09-03T05:09:00.383Z,57.30
2022-09-03T05:11:28.137Z,57.38
2022-09-03T05:13:57.363Z,57.78
2022-09-03T05:16:25.390Z,56.96
2022-09-03T05:18:54.074Z,57.25
2022-09-03T05:21:22.321Z,56.88
2022-09-03T05:23:53.322Z,57.35
2022-09-03T05:26:25.959Z,57.60
2022-09-03T05:28:58.975Z,57.66
2022-09-03T05:31:28.517Z,57.26
2022-09-03T05:33:58.604Z,57.32
2022-09-03T05:36:27.428Z,57.56
2022-09-03T05:38:54.449Z,57.37
2022-09-03T05:41:21.999Z,57.06
2022-09-03T05:43:55.859Z,57.24
2022-09-03T05:46:28.026Z,57.85
2022-09-03T05:48:54.707Z,57.22
2022-09-03T05:51:21.278Z,57.79
2022-09-03T05:53:49.357Z,57.34
2022-09-03T05:56:25.312Z,57.90
2022-09-03T05:58:55.020Z,58.63
2022-09-03T06:01:30.933Z,59.80
2022-09-03T06:03:58.694Z,58.49
2022-09-03T06:06:27.649Z,58.76
2022-09-03T06:09:00.587Z,58.51
2022-09-03T06:11:30.952Z,58.16
2022-09-03T06:14:01.566Z,58.01
2022-09-03T06:16:31.700Z,58.78
2022-09-03T06:19:00.137Z,57.80
2022-09-03T06:21:27.785Z,59.01
2022-09-03T06:23:59.998Z,57.88
2022-09-03T06:26:28.848Z,58.45
2022-09-03T06:28:57.258Z,58.83
2022-09-03T06:31:24.794Z,58.02
2022-09-03T06:33:53.072Z,56.56
2022-09-03T06:36:20.424Z,56.02
2022-09-03T06:38:47.655Z,54.99
2022-09-03T06:41:21.145Z,54.54
2022-09-03T06:43:49.410Z,55.59
2022-09-03T06:46:59.058Z,55.36
2022-09-03T06:49:26.298Z,55.43
2022-09-03T06:51:55.518Z,55.77
2022-09-03T06:54:23.207Z,55.16
2022-09-03T06:56:49.832Z,55.04
2022-09-03T06:59:16.556Z,55.70
2022-09-03T07:01:46.311Z,55.54
2022-09-03T07:04:19.169Z,55.20
2022-09-03T07:06:46.640Z,54.77
2022-09-03T07:09:14.983Z,54.22
2022-09-03T07:11:47.425Z,54.48
2022-09-03T07:14:16.543Z,54.55
2022-09-03T07:16:43.806Z,54.10
2022-09-03T07:19:10.923Z,54.98
2022-09-03T07:21:37.806Z,54.82
2022-09-03T07:24:06.047Z,54.46
2022-09-03T07:26:44.700Z,54.11
2022-09-03T07:29:11.996Z,54.76
2022-09-03T07:31:40.440Z,53.96
2022-09-03T07:34:12.738Z,53.25
2022-09-03T07:36:48.843Z,53.83
2022-09-03T07:39:16.774Z,54.80
2022-09-03T07:41:46.026Z,53.40
2022-09-03T07:44:15.355Z,52.60
2022-09-03T07:46:43.509Z,52.46
2022-09-03T07:49:10.630Z,52.82
2022-09-03T07:51:38.573Z,52.82
2022-09-03T07:54:09.126Z,54.00
2022-09-03T07:56:36.593Z,54.75
2022-09-03T07:59:04.541Z,53.48
2022-09-03T08:01:32.910Z,54.04
2022-09-03T08:03:59.914Z,53.57
2022-09-03T08:06:28.153Z,53.29
2022-09-03T08:09:05.009Z,52.83
2022-09-03T08:11:35.051Z,53.03
2022-09-03T08:14:07.358Z,52.68
2022-09-03T08:16:37.144Z,52.83
2022-09-03T08:19:04.889Z,53.58
2022-09-03T08:21:31.944Z,53.84
2022-09-03T08:24:04.661Z,54.05
2022-09-03T08:26:36.568Z,53.54
2022-09-03T08:29:04.532Z,52.53
2022-09-03T08:31:32.388Z,53.29
2022-09-03T08:34:03.182Z,53.55
2022-09-03T08:36:31.183Z,53.94
2022-09-03T08:39:09.463Z,53.78
2022-09-03T08:41:47.492Z,53.10
2022-09-03T08:44:51.849Z,53.05
2022-09-03T08:48:10.235Z,52.76
2022-09-03T08:50:52.704Z,53.36
2022-09-03T08:53:28.284Z,53.63
2022-09-03T08:56:02.940Z,53.57
2022-09-03T08:58:33.918Z,53.41
2022-09-03T09:01:11.500Z,52.83
2022-09-03T09:03:42.335Z,52.37
2022-09-03T09:06:26.596Z,53.76
2022-09-03T09:08:56.404Z,53.88
2022-09-03T09:12:04.815Z,52.87
2022-09-03T09:14:53.116Z,53.32
2022-09-03T09:18:02.039Z,53.11
2022-09-03T09:20:37.606Z,53.42
2022-09-03T09:23:06.827Z,53.37
2022-09-03T09:25:39.380Z,53.61
2022-09-03T09:28:23.198Z,53.64
2022-09-03T09:30:54.030Z,54.17
2022-09-03T09:33:21.004Z,53.89
2022-09-03T09:35:48.077Z,54.53
2022-09-03T09:38:16.456Z,54.03
2022-09-03T09:40:45.631Z,54.51
2022-09-03T09:43:16.168Z,54.26
2022-09-03T09:45:48.525Z,54.08
2022-09-03T09:48:21.059Z,54.64
2022-09-03T09:50:47.710Z,55.24
2022-09-03T09:53:18.550Z,55.70
2022-09-03T09:55:52.036Z,54.06
2022-09-03T09:58:21.101Z,53.56
2022-09-03T10:01:15.946Z,54.72
2022-09-03T10:04:01.052Z,55.79
2022-09-03T10:06:50.131Z,55.06
2022-09-03T10:09:20.032Z,53.86
2022-09-03T10:12:04.299Z,54.91
2022-09-03T10:14:37.284Z,54.87
2022-09-03T10:17:22.100Z,54.73
2022-09-03T10:20:24.148Z,55.46
2022-09-03T10:22:56.622Z,56.05
2022-09-03T10:25:28.669Z,54.88
2022-09-03T10:28:01.977Z,55.62
2022-09-03T10:30:46.235Z,55.54
2022-09-03T10:33:22.870Z,55.56
2022-09-03T10:36:01.026Z,56.18
2022-09-03T10:38:36.570Z,55.94
2022-09-03T10:41:19.932Z,56.12
2022-09-03T10:44:10.727Z,56.02
2022-09-03T10:46:50.937Z,57.11
2022-09-03T10:49:46.104Z,57.97
2022-09-03T10:52:17.843Z,57.88
2022-09-03T10:55:09.202Z,58.97
2022-09-03T10:57:48.506Z,58.66
2022-09-03T11:00:18.180Z,59.54
2022-09-03T11:03:22.389Z,58.81
2022-09-03T11:05:51.897Z,56.93
2022-09-03T11:08:28.337Z,56.99
2022-09-03T11:11:00.226Z,57.64
2022-09-03T11:13:35.790Z,58.22
2022-09-03T11:16:11.977Z,58.63
2022-09-03T11:18:46.984Z,57.55
2022-09-03T11:21:16.716Z,58.44
2022-09-03T11:23:50.537Z,57.79
2022-09-03T11:26:26.218Z,57.75
2022-09-03T11:29:20.416Z,58.27
2022-09-03T11:32:07.859Z,56.75
2022-09-03T11:34:46.392Z,57.65
2022-09-03T11:37:30.869Z,58.24
2022-09-03T11:40:21.770Z,58.64
2022-09-03T11:42:48.679Z,59.27
2022-09-03T11:45:27.402Z,59.74
2022-09-03T11:47:54.634Z,59.11
2022-09-03T11:50:30.168Z,58.04
2022-09-03T11:53:25.235Z,57.91
2022-09-03T11:56:12.970Z,59.19
2022-09-03T11:58:42.893Z,59.56
2022-09-03T12:01:16.024Z,58.80
2022-09-03T12:04:04.835Z,60.07
2022-09-03T12:07:06.696Z,59.85
2022-09-03T12:09:39.353Z,59.55
2022-09-03T12:12:29.786Z,58.00
2022-09-03T12:15:10.686Z,57.08
2022-09-03T12:18:17.605Z,58.28
2022-09-03T12:20:45.010Z,58.05
2022-09-03T12:23:15.058Z,56.84
2022-09-03T12:25:48.471Z,58.84
2022-09-03T12:28:23.476Z,57.58
2022-09-03T12:30:53.336Z,58.98
2022-09-03T12:33:22.773Z,56.72
2022-09-03T12:36:00.710Z,57.87
2022-09-03T12:38:29.858Z,57.04
2022-09-03T12:43:51.807Z,56.29
2022-09-03T12:46:23.151Z,54.88
2022-09-03T12:52:06.607Z,52.01
2022-09-03T12:54:37.983Z,52.51
2022-09-03T12:57:05.148Z,52.35
2022-09-03T12:59:35.496Z,51.83
2022-09-03T13:02:12.862Z,51.97
2022-09-03T13:04:40.308Z,52.13
2022-09-03T13:07:29.140Z,51.17
2022-09-03T13:10:04.278Z,50.34
2022-09-03T13:12:34.617Z,51.10
2022-09-03T13:15:08.259Z,48.30
2022-09-03T13:17:59.002Z,49.07
2022-09-03T13:20:44.268Z,49.70
2022-09-03T13:23:49.943Z,50.69
2022-09-03T13:26:53.767Z,47.47
2022-09-03T13:29:52.656Z,49.14
2022-09-03T13:32:30.712Z,48.03
2022-09-03T13:35:19.893Z,48.85
2022-09-03T13:37:55.170Z,49.88
2022-09-03T13:40:49.816Z,49.46
2022-09-03T13:43:42.473Z,50.00
2022-09-03T13:46:30.040Z,50.97
2022-09-03T13:49:37.922Z,51.91
2022-09-03T13:52:08.701Z,52.68
2022-09-03T13:54:49.006Z,52.05
2022-09-03T13:57:25.015Z,51.20
2022-09-03T14:00:01.467Z,52.77
2022-09-03T14:02:46.945Z,53.37
2022-09-03T14:05:25.095Z,53.50
2022-09-03T14:08:14.212Z,53.25
2022-09-03T14:10:56.302Z,53.67
2022-09-03T14:13:32.176Z,52.54
2022-09-03T14:16:08.834Z,52.32
2022-09-03T14:18:51.802Z,50.14
2022-09-03T14:21:24.776Z,51.77
2022-09-03T14:24:12.138Z,51.31
2022-09-03T14:26:50.487Z,52.24
2022-09-03T14:29:18.337Z,52.14
2022-09-03T14:32:22.510Z,51.49
2022-09-03T14:35:07.754Z,52.22
2022-09-03T14:37:43.483Z,53.41
2022-09-03T14:40:27.960Z,52.36
2022-09-03T14:43:06.605Z,53.01
2022-09-03T14:46:03.612Z,53.04
2022-09-03T14:48:54.563Z,52.25
2022-09-03T14:51:35.421Z,53.71
2022-09-03T14:54:18.989Z,52.72
2022-09-03T14:56:48.373Z,54.33
2022-09-03T14:59:34.695Z,54.33
2022-09-03T15:02:33.765Z,53.22
2022-09-03T15:05:32.806Z,53.48
2022-09-03T15:08:02.447Z,53.69
2022-09-03T15:10:36.392Z,53.64
2022-09-03T15:13:15.001Z,53.30
2022-09-03T15:15:52.359Z,53.24
2022-09-03T15:18:31.054Z,53.74
2022-09-03T15:21:15.306Z,53.31
2022-09-03T15:23:52.182Z,52.49
2022-09-03T15:26:40.049Z,53.34
2022-09-03T15:29:26.392Z,52.38
2022-09-03T15:32:00.654Z,53.79
2022-09-03T15:34:50.754Z,52.63
2022-09-03T15:37:26.398Z,51.97
2022-09-03T15:40:23.167Z,53.10
2022-09-03T15:42:55.398Z,52.48
2022-09-03T15:45:35.029Z,52.53
2022-09-03T15:48:21.539Z,53.62
2022-09-03T15:51:11.946Z,54.14
2022-09-03T15:53:50.959Z,55.08
2022-09-03T15:56:43.920Z,55.14
2022-09-03T15:59:16.254Z,54.79
2022-09-03T16:01:54.082Z,54.99
2022-09-03T16:04:48.942Z,54.99
2022-09-03T16:07:39.581Z,54.41
2022-09-03T16:10:25.838Z,54.84
2022-09-03T16:13:05.800Z,54.41
2022-09-03T16:15:45.447Z,53.28
2022-09-03T16:18:25.900Z,54.12
2022-09-03T16:21:57.354Z,54.09
2022-09-03T16:24:29.319Z,54.51
2022-09-03T16:27:08.472Z,53.25
2022-09-03T16:29:38.340Z,53.76
2022-09-03T16:32:34.579Z,52.44
2022-09-03T16:35:10.314Z,51.76
2022-09-03T16:38:25.093Z,52.44
2022-09-03T16:41:00.701Z,52.08
2022-09-03T16:44:04.112Z,52.34
2022-09-03T16:46:36.836Z,55.38
2022-09-03T16:49:23.275Z,55.62
2022-09-03T16:51:52.792Z,55.40
2022-09-03T16:54:27.719Z,55.60
2022-09-03T16:57:25.018Z,55.63
2022-09-03T17:00:03.207Z,55.00
2022-09-03T17:02:41.200Z,53.88
2022-09-03T17:05:23.622Z,55.25
2022-09-03T17:08:11.922Z,56.70
2022-09-03T17:10:41.540Z,56.73
2022-09-03T17:13:23.216Z,56.72
2022-09-03T17:16:08.036Z,57.62
2022-09-03T17:18:59.073Z,56.65
2022-09-03T17:21:48.823Z,57.25
2022-09-03T17:24:31.309Z,57.78
2022-09-03T17:27:12.787Z,57.43
2022-09-03T17:30:00.646Z,57.64
2022-09-03T17:33:06.408Z,58.28
2022-09-03T17:35:50.673Z,58.64
2022-09-03T17:38:38.968Z,59.73
2022-09-03T17:41:24.782Z,59.15
2022-09-03T17:44:02.463Z,59.78
2022-09-03T17:46:40.920Z,59.98
2022-09-03T17:49:08.495Z,58.58
2022-09-03T17:51:39.789Z,59.30
2022-09-03T17:54:08.615Z,59.37
2022-09-03T17:56:51.046Z,60.75
2022-09-03T17:59:50.963Z,62.24
2022-09-03T18:02:43.429Z,63.66
2022-09-03T18:05:27.466Z,66.02
2022-09-03T18:08:35.134Z,67.87
2022-09-03T18:11:38.650Z,69.39
2022-09-03T18:14:24.315Z,72.29
2022-09-03T18:17:05.459Z,74.11
2022-09-03T18:20:02.651Z,74.05
2022-09-03T18:22:56.983Z,74.09
2022-09-03T18:25:44.857Z,74.81
2022-09-03T18:28:34.789Z,75.12
2022-09-03T18:31:19.652Z,76.02
2022-09-03T18:34:04.703Z,75.57
2022-09-03T18:36:50.763Z,77.34
2022-09-03T18:39:43.359Z,77.42
2022-09-03T18:43:01.152Z,76.67
2022-09-03T18:47:22.484Z,77.72
2022-09-03T18:49:29.861Z,78.58
2022-09-03T18:52:23.806Z,78.97
2022-09-03T18:55:44.734Z,78.87
2022-09-03T18:58:51.776Z,78.91
2022-09-03T19:01:59.626Z,78.93
2022-09-03T19:05:22.511Z,79.65
2022-09-03T19:08:26.299Z,79.83
2022-09-03T19:11:22.712Z,79.50
2022-09-03T19:14:07.604Z,79.32
2022-09-03T19:17:20.063Z,79.30
2022-09-03T19:20:32.081Z,79.67
2022-09-03T19:23:16.958Z,80.67
2022-09-03T19:26:02.760Z,80.61
2022-09-03T19:28:56.196Z,80.44
2022-09-03T19:31:41.141Z,79.99
2022-09-03T19:34:48.263Z,80.58
2022-09-03T19:38:02.380Z,80.14
2022-09-03T19:41:24.180Z,80.42
2022-09-03T19:44:18.368Z,80.57
2022-09-03T19:47:12.795Z,80.80
2022-09-03T19:50:22.882Z,81.27
2022-09-03T19:53:22.215Z,81.22
2022-09-03T19:56:12.933Z,81.18
2022-09-03T19:59:26.644Z,81.30
2022-09-03T20:02:12.066Z,80.78
2022-09-03T20:05:02.986Z,81.46
2022-09-03T20:07:48.347Z,81.32
2022-09-03T20:10:23.473Z,81.30
2022-09-03T20:13:02.316Z,81.00
2022-09-03T20:16:07.330Z,80.89
2022-09-03T20:19:32.999Z,82.50
2022-09-03T20:22:03.057Z,82.10
2022-09-03T20:24:51.011Z,82.31
2022-09-03T20:27:32.846Z,82.30
2022-09-03T20:30:05.524Z,81.98
2022-09-03T20:32:41.071Z,81.52
2022-09-03T20:35:29.034Z,82.10
2022-09-03T20:38:23.653Z,81.64
2022-09-03T20:40:53.072Z,81.87
2022-09-03T20:43:57.152Z,82.00
2022-09-03T20:46:55.840Z,82.27
2022-09-03T20:49:55.193Z,81.89
2022-09-03T20:52:36.861Z,81.90
2022-09-03T20:55:18.596Z,81.41
2022-09-03T20:58:13.246Z,81.29
2022-09-03T21:01:07.249Z,81.86
2022-09-03T21:03:42.841Z,82.01
2022-09-03T21:06:24.614Z,82.54
2022-09-03T21:09:02.544Z,82.53
2022-09-03T21:11:53.523Z,82.52
2022-09-03T21:14:38.184Z,82.28
2022-09-03T21:17:23.370Z,82.32
2022-09-03T21:20:15.652Z,82.33
2022-09-03T21:22:57.356Z,82.89
2022-09-03T21:25:48.773Z,83.05
2022-09-03T21:28:32.115Z,83.25
2022-09-03T21:31:02.158Z,83.49
2022-09-03T21:33:33.172Z,83.20
2022-09-03T21:36:07.356Z,83.19
2022-09-03T21:38:37.343Z,83.05
2022-09-03T21:41:15.492Z,84.10
2022-09-03T21:43:48.742Z,84.68
2022-09-03T21:46:22.120Z,84.69
2022-09-03T21:48:57.328Z,84.62
2022-09-03T21:51:36.893Z,83.61
2022-09-03T21:54:33.681Z,84.36
2022-09-03T21:57:22.342Z,84.29
2022-09-03T22:00:18.003Z,84.30
2022-09-03T22:02:49.401Z,85.23
2022-09-03T22:05:18.447Z,85.12
2022-09-03T22:07:54.300Z,84.20
2022-09-03T22:10:24.384Z,86.04
2022-09-03T22:13:15.439Z,85.88
2022-09-03T22:15:48.127Z,86.03
2022-09-03T22:18:30.291Z,86.29
2022-09-03T22:20:59.756Z,86.94
2022-09-03T22:23:45.434Z,86.86
2022-09-03T22:26:40.510Z,87.07
2022-09-03T22:29:20.951Z,88.15
2022-09-03T22:32:03.145Z,87.98
2022-09-03T22:35:23.932Z,87.15
2022-09-03T22:38:24.633Z,88.08
2022-09-03T22:41:01.431Z,89.40
2022-09-03T22:43:48.243Z,88.58
2022-09-03T22:46:17.305Z,89.37
2022-09-03T22:49:09.175Z,89.17
2022-09-03T22:52:01.754Z,89.52
2022-09-03T22:54:46.504Z,89.74
2022-09-03T22:57:15.821Z,89.92
2022-09-03T22:59:57.272Z,90.94
2022-09-03T23:02:27.568Z,91.09
2022-09-03T23:05:03.447Z,91.82
2022-09-03T23:07:52.595Z,92.53
2022-09-03T23:10:32.520Z,92.52
2022-09-03T23:13:16.529Z,92.06
2022-09-03T23:15:46.148Z,92.15
2022-09-03T23:18:17.729Z,91.62
2022-09-03T23:20:53.187Z,91.47
2022-09-03T23:23:24.476Z,91.66
2022-09-03T23:26:16.019Z,91.55
2022-09-03T23:28:49.453Z,92.18
2022-09-03T23:31:25.348Z,91.61
2022-09-03T23:33:54.684Z,92.17
2022-09-03T23:36:55.019Z,91.75
2022-09-03T23:39:39.849Z,91.90
2022-09-03T23:42:30.667Z,91.99
2022-09-03T23:45:16.267Z,91.91
2022-09-03T23:47:50.343Z,92.38
2022-09-03T23:50:29.041Z,92.87
2022-09-03T23:53:31.626Z,92.62
2022-09-03T23:56:16.951Z,92.63
2022-09-03T23:59:01.602Z,93.03
